sensor_id;sensor_type;location;lat;lon;timestamp;pressure;altitude;pressure_sealevel;temperature;humidity
75072;BME280;63651;55.728;38.022;2023-06-14T00:01:55;99933.09;;;18.19;39.63
75072;BME280;63651;55.728;38.022;2023-06-14T00:06:56;99931.56;;;18.23;39.77
75072;BME280;63651;55.728;38.022;2023-06-14T00:11:57;99923.41;;;18.17;39.81
75072;BME280;63651;55.728;38.022;2023-06-14T00:16:58;99927.84;;;18.18;39.98
75072;BME280;63651;55.728;38.022;2023-06-14T00:21:59;99926.16;;;18.17;40.28
75072;BME280;63651;55.728;38.022;2023-06-14T00:27:00;99922.97;;;18.08;40.46
75072;BME280;63651;55.728;38.022;2023-06-14T00:32:02;99920.47;;;18.07;40.84
75072;BME280;63651;55.728;38.022;2023-06-14T00:37:03;99916.34;;;17.92;40.86
75072;BME280;63651;55.728;38.022;2023-06-14T00:42:04;99913.28;;;17.77;40.91
75072;BME280;63651;55.728;38.022;2023-06-14T00:47:06;99915.00;;;17.67;41.12
75072;BME280;63651;55.728;38.022;2023-06-14T00:52:07;99911.88;;;17.63;41.50
75072;BME280;63651;55.728;38.022;2023-06-14T00:57:12;99916.19;;;17.71;41.92
75072;BME280;63651;55.728;38.022;2023-06-14T01:02:14;99921.53;;;17.77;41.85
75072;BME280;63651;55.728;38.022;2023-06-14T01:12:48;99913.63;;;17.81;42.09
75072;BME280;63651;55.728;38.022;2023-06-14T01:17:51;99917.56;;;17.85;42.19
75072;BME280;63651;55.728;38.022;2023-06-14T01:22:54;99923.41;;;17.88;42.25
75072;BME280;63651;55.728;38.022;2023-06-14T01:28:00;99924.88;;;17.79;42.28
75072;BME280;63651;55.728;38.022;2023-06-14T01:33:02;99921.25;;;17.90;42.06
75072;BME280;63651;55.728;38.022;2023-06-14T01:38:06;99920.81;;;17.82;41.88
75072;BME280;63651;55.728;38.022;2023-06-14T01:43:07;99931.22;;;17.80;41.76
75072;BME280;63651;55.728;38.022;2023-06-14T01:48:09;99933.84;;;17.75;41.43
75072;BME280;63651;55.728;38.022;2023-06-14T01:53:10;99936.88;;;17.38;41.29
75072;BME280;63651;55.728;38.022;2023-06-14T01:58:11;99928.28;;;17.23;41.50
75072;BME280;63651;55.728;38.022;2023-06-14T02:03:12;99934.84;;;17.22;41.46
75072;BME280;63651;55.728;38.022;2023-06-14T02:08:13;99930.06;;;16.94;41.83
75072;BME280;63651;55.728;38.022;2023-06-14T02:13:15;99932.53;;;16.84;42.10
75072;BME280;63651;55.728;38.022;2023-06-14T02:18:16;99925.97;;;16.85;42.36
75072;BME280;63651;55.728;38.022;2023-06-14T02:23:17;99930.06;;;16.94;42.28
75072;BME280;63651;55.728;38.022;2023-06-14T02:28:18;99930.09;;;17.06;42.51
75072;BME280;63651;55.728;38.022;2023-06-14T02:33:19;99927.44;;;17.22;42.38
75072;BME280;63651;55.728;38.022;2023-06-14T02:38:20;99934.50;;;17.30;42.17
75072;BME280;63651;55.728;38.022;2023-06-14T02:43:21;99933.78;;;17.35;42.35
75072;BME280;63651;55.728;38.022;2023-06-14T02:48:22;99935.56;;;17.41;42.36
75072;BME280;63651;55.728;38.022;2023-06-14T02:53:23;99942.47;;;17.43;41.79
75072;BME280;63651;55.728;38.022;2023-06-14T02:58:24;99948.44;;;17.40;41.98
75072;BME280;63651;55.728;38.022;2023-06-14T03:03:25;99940.22;;;17.40;41.98
75072;BME280;63651;55.728;38.022;2023-06-14T03:08:27;99941.97;;;17.58;42.05
75072;BME280;63651;55.728;38.022;2023-06-14T03:13:29;99942.09;;;17.63;42.19
75072;BME280;63651;55.728;38.022;2023-06-14T03:18:33;99954.66;;;17.71;41.98
75072;BME280;63651;55.728;38.022;2023-06-14T03:23:36;99943.75;;;17.76;42.24
75072;BME280;63651;55.728;38.022;2023-06-14T03:28:37;99948.66;;;17.74;42.07
75072;BME280;63651;55.728;38.022;2023-06-14T03:33:38;99943.66;;;17.71;41.79
75072;BME280;63651;55.728;38.022;2023-06-14T03:38:39;99936.00;;;17.73;41.94
75072;BME280;63651;55.728;38.022;2023-06-14T03:43:40;99935.63;;;17.81;41.77
75072;BME280;63651;55.728;38.022;2023-06-14T03:48:41;99935.00;;;17.90;41.93
75072;BME280;63651;55.728;38.022;2023-06-14T03:53:42;99939.88;;;18.00;42.05
75072;BME280;63651;55.728;38.022;2023-06-14T03:58:43;99942.63;;;18.00;41.86
75072;BME280;63651;55.728;38.022;2023-06-14T04:03:45;99943.00;;;17.92;42.13
75072;BME280;63651;55.728;38.022;2023-06-14T04:08:46;99939.75;;;17.95;42.47
75072;BME280;63651;55.728;38.022;2023-06-14T04:13:50;99938.94;;;17.95;42.24
75072;BME280;63651;55.728;38.022;2023-06-14T04:18:51;99934.16;;;17.90;42.67
75072;BME280;63651;55.728;38.022;2023-06-14T04:23:52;99935.09;;;17.96;42.42
75072;BME280;63651;55.728;38.022;2023-06-14T04:28:56;99942.84;;;17.99;43.01
75072;BME280;63651;55.728;38.022;2023-06-14T04:33:57;99943.91;;;18.09;42.64
75072;BME280;63651;55.728;38.022;2023-06-14T04:39:03;99932.03;;;18.20;42.45
75072;BME280;63651;55.728;38.022;2023-06-14T04:44:04;99934.88;;;18.26;42.63
75072;BME280;63651;55.728;38.022;2023-06-14T04:49:05;99936.16;;;18.35;41.77
75072;BME280;63651;55.728;38.022;2023-06-14T04:54:06;99939.09;;;18.45;41.93
75072;BME280;63651;55.728;38.022;2023-06-14T04:59:10;99939.59;;;18.42;41.83
75072;BME280;63651;55.728;38.022;2023-06-14T05:04:16;99933.44;;;18.51;41.34
75072;BME280;63651;55.728;38.022;2023-06-14T05:09:17;99936.75;;;18.65;41.81
75072;BME280;63651;55.728;38.022;2023-06-14T05:14:18;99933.16;;;18.81;41.03
75072;BME280;63651;55.728;38.022;2023-06-14T05:19:19;99936.00;;;18.86;40.22
75072;BME280;63651;55.728;38.022;2023-06-14T05:24:21;99940.00;;;18.96;39.98
75072;BME280;63651;55.728;38.022;2023-06-14T05:29:23;99934.91;;;19.04;38.98
75072;BME280;63651;55.728;38.022;2023-06-14T05:34:24;99928.13;;;19.12;37.94
75072;BME280;63651;55.728;38.022;2023-06-14T05:39:25;99935.22;;;19.25;37.40
75072;BME280;63651;55.728;38.022;2023-06-14T05:44:26;99935.78;;;19.27;37.85
75072;BME280;63651;55.728;38.022;2023-06-14T05:49:27;99944.97;;;19.32;38.22
75072;BME280;63651;55.728;38.022;2023-06-14T05:54:28;99948.31;;;19.51;37.94
75072;BME280;63651;55.728;38.022;2023-06-14T05:59:29;99948.66;;;19.55;36.99
75072;BME280;63651;55.728;38.022;2023-06-14T06:04:30;99946.81;;;19.60;36.65
75072;BME280;63651;55.728;38.022;2023-06-14T06:09:32;99951.81;;;19.63;36.20
75072;BME280;63651;55.728;38.022;2023-06-14T06:14:33;99950.28;;;19.72;36.60
75072;BME280;63651;55.728;38.022;2023-06-14T06:19:34;99949.63;;;19.87;35.71
75072;BME280;63651;55.728;38.022;2023-06-14T06:24:35;99949.81;;;20.02;34.99
75072;BME280;63651;55.728;38.022;2023-06-14T06:29:36;99947.53;;;19.94;34.90
75072;BME280;63651;55.728;38.022;2023-06-14T06:34:37;99942.50;;;20.13;34.41
75072;BME280;63651;55.728;38.022;2023-06-14T06:39:40;99933.41;;;20.12;34.72
75072;BME280;63651;55.728;38.022;2023-06-14T06:44:41;99936.78;;;20.20;35.07
75072;BME280;63651;55.728;38.022;2023-06-14T06:49:42;99930.50;;;20.24;32.82
75072;BME280;63651;55.728;38.022;2023-06-14T06:54:43;99931.63;;;20.28;34.18
75072;BME280;63651;55.728;38.022;2023-06-14T06:59:44;99926.00;;;20.40;32.54
75072;BME280;63651;55.728;38.022;2023-06-14T07:04:45;99933.53;;;20.50;32.77
75072;BME280;63651;55.728;38.022;2023-06-14T07:09:47;99928.50;;;20.41;32.16
75072;BME280;63651;55.728;38.022;2023-06-14T07:14:48;99933.59;;;20.55;31.62
75072;BME280;63651;55.728;38.022;2023-06-14T07:19:49;99936.88;;;20.52;31.26
75072;BME280;63651;55.728;38.022;2023-06-14T07:24:51;99933.41;;;20.66;32.13
75072;BME280;63651;55.728;38.022;2023-06-14T07:29:52;99936.19;;;20.66;30.74
75072;BME280;63651;55.728;38.022;2023-06-14T07:35:12;99919.88;;;20.65;30.80
75072;BME280;63651;55.728;38.022;2023-06-14T07:40:13;99928.41;;;20.63;30.50
75072;BME280;63651;55.728;38.022;2023-06-14T07:45:14;99933.81;;;20.80;30.23
75072;BME280;63651;55.728;38.022;2023-06-14T07:50:15;99921.09;;;20.79;30.74
75072;BME280;63651;55.728;38.022;2023-06-14T07:55:16;99926.47;;;20.91;30.05
75072;BME280;63651;55.728;38.022;2023-06-14T08:00:18;99924.38;;;21.03;30.27
75072;BME280;63651;55.728;38.022;2023-06-14T08:05:20;99916.19;;;20.81;29.79
75072;BME280;63651;55.728;38.022;2023-06-14T08:10:22;99919.03;;;20.91;30.42
75072;BME280;63651;55.728;38.022;2023-06-14T08:15:23;99922.16;;;21.05;30.04
75072;BME280;63651;55.728;38.022;2023-06-14T08:20:25;99913.88;;;21.05;30.17
75072;BME280;63651;55.728;38.022;2023-06-14T08:25:26;99910.03;;;21.06;30.69
75072;BME280;63651;55.728;38.022;2023-06-14T08:30:27;99907.38;;;21.21;29.97
75072;BME280;63651;55.728;38.022;2023-06-14T08:35:28;99920.69;;;21.24;29.73
75072;BME280;63651;55.728;38.022;2023-06-14T08:40:30;99909.56;;;21.19;30.19
75072;BME280;63651;55.728;38.022;2023-06-14T08:45:31;99915.16;;;21.24;29.32
75072;BME280;63651;55.728;38.022;2023-06-14T08:50:34;99905.53;;;21.32;28.97
75072;BME280;63651;55.728;38.022;2023-06-14T08:55:37;99901.13;;;21.36;27.92
75072;BME280;63651;55.728;38.022;2023-06-14T09:00:40;99878.44;;;21.29;28.82
75072;BME280;63651;55.728;38.022;2023-06-14T09:05:43;99894.50;;;21.37;28.91
75072;BME280;63651;55.728;38.022;2023-06-14T09:10:45;99886.25;;;21.47;28.56
75072;BME280;63651;55.728;38.022;2023-06-14T09:15:46;99877.22;;;21.62;28.28
75072;BME280;63651;55.728;38.022;2023-06-14T09:20:47;99876.66;;;21.60;28.77
75072;BME280;63651;55.728;38.022;2023-06-14T09:25:50;99880.56;;;21.69;27.67
75072;BME280;63651;55.728;38.022;2023-06-14T09:30:51;99882.47;;;21.63;28.46
75072;BME280;63651;55.728;38.022;2023-06-14T09:35:52;99865.38;;;21.77;27.95
75072;BME280;63651;55.728;38.022;2023-06-14T09:40:57;99876.16;;;21.78;27.24
75072;BME280;63651;55.728;38.022;2023-06-14T09:45:58;99872.81;;;21.71;27.22
75072;BME280;63651;55.728;38.022;2023-06-14T09:51:01;99855.94;;;21.67;28.22
75072;BME280;63651;55.728;38.022;2023-06-14T09:56:04;99853.75;;;21.75;28.51
75072;BME280;63651;55.728;38.022;2023-06-14T10:01:08;99847.69;;;21.83;29.13
75072;BME280;63651;55.728;38.022;2023-06-14T10:06:09;99841.34;;;21.92;28.32
75072;BME280;63651;55.728;38.022;2023-06-14T10:11:12;99840.25;;;21.93;28.14
75072;BME280;63651;55.728;38.022;2023-06-14T10:16:22;99823.66;;;21.88;29.11
75072;BME280;63651;55.728;38.022;2023-06-14T10:27:13;99827.31;;;22.04;29.53
75072;BME280;63651;55.728;38.022;2023-06-14T10:32:15;99819.06;;;22.19;27.25
75072;BME280;63651;55.728;38.022;2023-06-14T10:37:16;99825.69;;;22.18;28.05
75072;BME280;63651;55.728;38.022;2023-06-14T10:42:17;99816.28;;;22.29;27.84
75072;BME280;63651;55.728;38.022;2023-06-14T10:47:20;99803.28;;;22.25;28.21
75072;BME280;63651;55.728;38.022;2023-06-14T10:57:28;99811.88;;;22.23;28.47
75072;BME280;63651;55.728;38.022;2023-06-14T11:13:26;99794.69;;;22.37;28.59
75072;BME280;63651;55.728;38.022;2023-06-14T11:18:28;99792.22;;;22.35;28.52
75072;BME280;63651;55.728;38.022;2023-06-14T11:23:29;99795.25;;;22.54;27.89
75072;BME280;63651;55.728;38.022;2023-06-14T11:28:40;99781.13;;;22.65;27.27
75072;BME280;63651;55.728;38.022;2023-06-14T11:33:41;99785.81;;;22.65;27.57
75072;BME280;63651;55.728;38.022;2023-06-14T11:38:43;99786.38;;;22.57;27.52
75072;BME280;63651;55.728;38.022;2023-06-14T11:43:44;99772.81;;;22.60;27.71
75072;BME280;63651;55.728;38.022;2023-06-14T11:48:45;99763.97;;;22.53;28.35
75072;BME280;63651;55.728;38.022;2023-06-14T11:53:46;99765.31;;;22.71;28.18
75072;BME280;63651;55.728;38.022;2023-06-14T11:58:48;99755.34;;;22.85;27.59
75072;BME280;63651;55.728;38.022;2023-06-14T12:03:50;99756.72;;;22.73;28.09
75072;BME280;63651;55.728;38.022;2023-06-14T12:08:51;99765.03;;;22.67;28.78
75072;BME280;63651;55.728;38.022;2023-06-14T12:13:56;99739.56;;;22.71;28.64
75072;BME280;63651;55.728;38.022;2023-06-14T12:19:00;99734.03;;;22.71;28.45
75072;BME280;63651;55.728;38.022;2023-06-14T12:24:03;99731.78;;;22.78;28.63
75072;BME280;63651;55.728;38.022;2023-06-14T12:29:05;99730.38;;;22.95;27.77
75072;BME280;63651;55.728;38.022;2023-06-14T12:34:07;99716.00;;;22.78;28.72
75072;BME280;63651;55.728;38.022;2023-06-14T12:39:09;99720.66;;;23.03;27.30
75072;BME280;63651;55.728;38.022;2023-06-14T12:44:11;99720.09;;;23.01;27.07
75072;BME280;63651;55.728;38.022;2023-06-14T12:49:12;99705.72;;;22.94;28.07
75072;BME280;63651;55.728;38.022;2023-06-14T12:54:14;99714.31;;;22.97;27.81
75072;BME280;63651;55.728;38.022;2023-06-14T12:59:15;99713.47;;;22.97;27.81
75072;BME280;63651;55.728;38.022;2023-06-14T13:04:16;99712.59;;;23.07;28.14
75072;BME280;63651;55.728;38.022;2023-06-14T13:09:17;99702.63;;;23.06;28.09
75072;BME280;63651;55.728;38.022;2023-06-14T13:14:18;99701.81;;;23.00;28.18
75072;BME280;63651;55.728;38.022;2023-06-14T13:19:38;99708.03;;;23.31;26.72
75072;BME280;63651;55.728;38.022;2023-06-14T13:24:39;99703.41;;;23.16;27.98
75072;BME280;63651;55.728;38.022;2023-06-14T13:29:40;99698.72;;;23.12;28.42
75072;BME280;63651;55.728;38.022;2023-06-14T13:34:41;99689.28;;;23.13;28.14
75072;BME280;63651;55.728;38.022;2023-06-14T13:40:01;99693.34;;;23.41;27.30
75072;BME280;63651;55.728;38.022;2023-06-14T13:50:24;99693.59;;;23.88;25.97
75072;BME280;63651;55.728;38.022;2023-06-14T13:55:25;99682.72;;;23.92;26.79
75072;BME280;63651;55.728;38.022;2023-06-14T14:00:27;99678.88;;;23.88;27.52
75072;BME280;63651;55.728;38.022;2023-06-14T14:05:28;99676.91;;;24.22;25.97
75072;BME280;63651;55.728;38.022;2023-06-14T14:10:30;99696.81;;;24.35;26.16
75072;BME280;63651;55.728;38.022;2023-06-14T14:15:31;99688.47;;;24.35;26.41
75072;BME280;63651;55.728;38.022;2023-06-14T14:20:35;99681.22;;;24.39;26.85
75072;BME280;63651;55.728;38.022;2023-06-14T14:25:36;99682.84;;;24.69;25.75
75072;BME280;63651;55.728;38.022;2023-06-14T14:30:37;99670.50;;;24.80;25.92
75072;BME280;63651;55.728;38.022;2023-06-14T14:35:40;99668.97;;;25.16;24.68
75072;BME280;63651;55.728;38.022;2023-06-14T14:40:42;99687.31;;;25.55;23.31
75072;BME280;63651;55.728;38.022;2023-06-14T14:45:43;99684.31;;;25.51;24.05
75072;BME280;63651;55.728;38.022;2023-06-14T14:51:03;99686.41;;;25.97;23.48
75072;BME280;63651;55.728;38.022;2023-06-14T14:56:04;99689.88;;;26.08;22.56
75072;BME280;63651;55.728;38.022;2023-06-14T15:01:23;99684.03;;;26.23;22.43
75072;BME280;63651;55.728;38.022;2023-06-14T15:06:25;99687.19;;;26.35;23.62
75072;BME280;63651;55.728;38.022;2023-06-14T15:11:26;99680.94;;;26.71;22.58
75072;BME280;63651;55.728;38.022;2023-06-14T15:16:27;99684.66;;;26.80;22.62
75072;BME280;63651;55.728;38.022;2023-06-14T15:21:28;99684.13;;;26.92;22.67
75072;BME280;63651;55.728;38.022;2023-06-14T15:26:29;99682.50;;;27.32;21.87
75072;BME280;63651;55.728;38.022;2023-06-14T15:31:31;99693.59;;;27.73;21.06
75072;BME280;63651;55.728;38.022;2023-06-14T15:36:32;99692.38;;;28.10;21.09
75072;BME280;63651;55.728;38.022;2023-06-14T15:41:33;99698.22;;;28.45;20.74
75072;BME280;63651;55.728;38.022;2023-06-14T15:46:34;99694.75;;;28.70;20.30
75072;BME280;63651;55.728;38.022;2023-06-14T15:51:36;99699.19;;;28.40;20.00
75072;BME280;63651;55.728;38.022;2023-06-14T15:56:37;99703.47;;;28.68;19.83
75072;BME280;63651;55.728;38.022;2023-06-14T16:01:38;99706.06;;;28.65;20.06
75072;BME280;63651;55.728;38.022;2023-06-14T16:06:40;99696.97;;;28.59;20.24
75072;BME280;63651;55.728;38.022;2023-06-14T16:11:41;99696.69;;;28.92;19.26
75072;BME280;63651;55.728;38.022;2023-06-14T16:16:42;99703.19;;;29.27;19.29
75072;BME280;63651;55.728;38.022;2023-06-14T16:21:43;99715.03;;;30.07;17.81
75072;BME280;63651;55.728;38.022;2023-06-14T16:26:44;99721.66;;;30.83;16.76
75072;BME280;63651;55.728;38.022;2023-06-14T16:31:45;99716.72;;;31.48;17.31
75072;BME280;63651;55.728;38.022;2023-06-14T16:36:46;99710.13;;;31.94;16.83
75072;BME280;63651;55.728;38.022;2023-06-14T16:41:47;99720.53;;;32.14;17.05
75072;BME280;63651;55.728;38.022;2023-06-14T16:46:49;99716.78;;;31.90;16.50
75072;BME280;63651;55.728;38.022;2023-06-14T16:51:50;99722.47;;;32.02;16.56
75072;BME280;63651;55.728;38.022;2023-06-14T16:56:51;99725.50;;;31.76;16.74
75072;BME280;63651;55.728;38.022;2023-06-14T17:01:52;99737.63;;;30.02;18.56
75072;BME280;63651;55.728;38.022;2023-06-14T17:06:53;99740.59;;;29.31;20.29
75072;BME280;63651;55.728;38.022;2023-06-14T17:11:54;99736.66;;;28.92;20.41
75072;BME280;63651;55.728;38.022;2023-06-14T17:16:55;99730.47;;;28.51;21.00
75072;BME280;63651;55.728;38.022;2023-06-14T17:21:56;99741.34;;;28.08;20.67
75072;BME280;63651;55.728;38.022;2023-06-14T17:26:58;99732.91;;;27.49;20.86
75072;BME280;63651;55.728;38.022;2023-06-14T17:31:59;99728.06;;;27.41;20.66
75072;BME280;63651;55.728;38.022;2023-06-14T17:37:02;99737.03;;;27.10;20.62
75072;BME280;63651;55.728;38.022;2023-06-14T17:42:03;99745.78;;;26.90;20.58
75072;BME280;63651;55.728;38.022;2023-06-14T17:47:05;99740.34;;;26.20;21.51
75072;BME280;63651;55.728;38.022;2023-06-14T17:52:06;99749.41;;;26.12;21.99
75072;BME280;63651;55.728;38.022;2023-06-14T17:57:07;99758.19;;;25.81;22.09
75072;BME280;63651;55.728;38.022;2023-06-14T18:02:08;99768.94;;;25.27;23.19
75072;BME280;63651;55.728;38.022;2023-06-14T18:07:09;99759.31;;;24.90;24.04
75072;BME280;63651;55.728;38.022;2023-06-14T18:12:11;99752.34;;;24.64;24.05
75072;BME280;63651;55.728;38.022;2023-06-14T18:17:12;99765.84;;;24.46;24.44
75072;BME280;63651;55.728;38.022;2023-06-14T18:22:13;99767.31;;;24.39;24.56
75072;BME280;63651;55.728;38.022;2023-06-14T18:27:14;99763.34;;;24.11;24.95
75072;BME280;63651;55.728;38.022;2023-06-14T18:32:15;99769.31;;;23.89;25.43
75072;BME280;63651;55.728;38.022;2023-06-14T18:37:16;99769.72;;;23.72;25.75
75072;BME280;63651;55.728;38.022;2023-06-14T18:42:17;99767.84;;;23.63;25.95
75072;BME280;63651;55.728;38.022;2023-06-14T18:47:18;99765.44;;;23.30;26.38
75072;BME280;63651;55.728;38.022;2023-06-14T18:52:19;99773.81;;;23.15;27.02
75072;BME280;63651;55.728;38.022;2023-06-14T18:57:20;99778.59;;;22.89;27.32
75072;BME280;63651;55.728;38.022;2023-06-14T19:02:21;99766.69;;;22.94;27.10
75072;BME280;63651;55.728;38.022;2023-06-14T19:07:22;99759.78;;;22.71;27.43
75072;BME280;63651;55.728;38.022;2023-06-14T19:12:24;99762.28;;;22.57;28.23
75072;BME280;63651;55.728;38.022;2023-06-14T19:17:26;99764.78;;;22.54;27.83
75072;BME280;63651;55.728;38.022;2023-06-14T19:22:28;99770.91;;;22.35;28.08
75072;BME280;63651;55.728;38.022;2023-06-14T19:27:29;99767.03;;;22.37;28.78
75072;BME280;63651;55.728;38.022;2023-06-14T19:32:32;99765.38;;;22.30;28.85
75072;BME280;63651;55.728;38.022;2023-06-14T19:37:34;99773.38;;;22.12;29.13
75072;BME280;63651;55.728;38.022;2023-06-14T19:42:36;99773.94;;;22.14;29.18
75072;BME280;63651;55.728;38.022;2023-06-14T19:47:39;99777.47;;;21.94;28.74
75072;BME280;63651;55.728;38.022;2023-06-14T19:52:42;99769.72;;;21.91;29.22
75072;BME280;63651;55.728;38.022;2023-06-14T19:58:01;99777.16;;;21.80;29.20
75072;BME280;63651;55.728;38.022;2023-06-14T20:03:03;99779.09;;;21.75;29.29
75072;BME280;63651;55.728;38.022;2023-06-14T20:08:04;99781.00;;;21.69;29.93
75072;BME280;63651;55.728;38.022;2023-06-14T20:13:06;99779.06;;;21.64;29.34
75072;BME280;63651;55.728;38.022;2023-06-14T20:18:08;99782.31;;;21.46;30.10
75072;BME280;63651;55.728;38.022;2023-06-14T20:23:09;99784.25;;;21.46;29.96
75072;BME280;63651;55.728;38.022;2023-06-14T20:28:10;99782.78;;;21.23;30.51
75072;BME280;63651;55.728;38.022;2023-06-14T20:33:12;99780.03;;;21.23;30.19
75072;BME280;63651;55.728;38.022;2023-06-14T20:38:13;99780.53;;;21.20;30.32
75072;BME280;63651;55.728;38.022;2023-06-14T20:43:14;99788.31;;;21.23;30.27
75072;BME280;63651;55.728;38.022;2023-06-14T20:48:15;99787.47;;;21.22;30.26
75072;BME280;63651;55.728;38.022;2023-06-14T20:53:17;99787.44;;;21.17;30.25
75072;BME280;63651;55.728;38.022;2023-06-14T20:58:18;99784.34;;;21.08;30.38
75072;BME280;63651;55.728;38.022;2023-06-14T21:03:20;99790.91;;;20.97;30.78
75072;BME280;63651;55.728;38.022;2023-06-14T21:08:21;99785.69;;;21.01;30.80
75072;BME280;63651;55.728;38.022;2023-06-14T21:13:23;99785.97;;;20.99;30.96
75072;BME280;63651;55.728;38.022;2023-06-14T21:18:24;99785.69;;;21.01;30.64
75072;BME280;63651;55.728;38.022;2023-06-14T21:23:25;99781.19;;;20.85;30.76
75072;BME280;63651;55.728;38.022;2023-06-14T21:28:26;99782.28;;;20.84;30.70
75072;BME280;63651;55.728;38.022;2023-06-14T21:33:27;99779.09;;;20.65;30.76
75072;BME280;63651;55.728;38.022;2023-06-14T21:38:28;99774.91;;;20.57;30.78
75072;BME280;63651;55.728;38.022;2023-06-14T21:43:29;99765.81;;;20.62;30.77
75072;BME280;63651;55.728;38.022;2023-06-14T21:48:30;99762.22;;;20.61;30.51
75072;BME280;63651;55.728;38.022;2023-06-14T21:53:32;99759.13;;;20.53;30.61
75072;BME280;63651;55.728;38.022;2023-06-14T21:58:33;99763.81;;;20.52;30.32
75072;BME280;63651;55.728;38.022;2023-06-14T22:03:34;99765.50;;;20.53;29.81
75072;BME280;63651;55.728;38.022;2023-06-14T22:08:35;99761.38;;;20.56;30.06
75072;BME280;63651;55.728;38.022;2023-06-14T22:13:36;99772.03;;;20.42;30.22
75072;BME280;63651;55.728;38.022;2023-06-14T22:18:38;99769.06;;;20.22;30.38
75072;BME280;63651;55.728;38.022;2023-06-14T22:23:40;99769.25;;;20.10;30.59
75072;BME280;63651;55.728;38.022;2023-06-14T22:28:43;99774.78;;;19.83;30.90
75072;BME280;63651;55.728;38.022;2023-06-14T22:33:46;99768.25;;;19.62;31.17
75072;BME280;63651;55.728;38.022;2023-06-14T22:38:47;99762.47;;;19.64;30.88
75072;BME280;63651;55.728;38.022;2023-06-14T22:43:48;99764.91;;;19.60;31.26
75072;BME280;63651;55.728;38.022;2023-06-14T22:48:51;99761.13;;;19.66;30.81
75072;BME280;63651;55.728;38.022;2023-06-14T22:53:52;99764.09;;;19.43;31.71
75072;BME280;63651;55.728;38.022;2023-06-14T22:58:53;99768.16;;;19.35;32.18
75072;BME280;63651;55.728;38.022;2023-06-14T23:03:54;99773.31;;;18.66;33.13
75072;BME280;63651;55.728;38.022;2023-06-14T23:08:58;99770.13;;;18.96;33.15
75072;BME280;63651;55.728;38.022;2023-06-14T23:14:00;99774.09;;;18.83;33.29
75072;BME280;63651;55.728;38.022;2023-06-14T23:19:01;99776.63;;;18.68;33.08
75072;BME280;63651;55.728;38.022;2023-06-14T23:24:03;99770.72;;;18.43;33.80
75072;BME280;63651;55.728;38.022;2023-06-14T23:29:04;99765.94;;;18.72;33.32
75072;BME280;63651;55.728;38.022;2023-06-14T23:34:05;99758.28;;;18.74;33.06
75072;BME280;63651;55.728;38.022;2023-06-14T23:39:06;99763.84;;;18.79;33.30
75072;BME280;63651;55.728;38.022;2023-06-14T23:44:07;99768.59;;;18.16;34.45
75072;BME280;63651;55.728;38.022;2023-06-14T23:49:08;99770.25;;;17.84;35.24
75072;BME280;63651;55.728;38.022;2023-06-14T23:54:09;99760.66;;;17.70;35.66
75072;BME280;63651;55.728;38.022;2023-06-14T23:59:12;99764.44;;;17.40;36.05
